Droitwich, United Kingdom
Current Conditions -  °F | °C
As of 2:50 PM on Friday 31 Oct 2014 (Local Time) from EGBB Reporting Station
Clear Clear  
Wind Chill: 68°   Ceiling: Unl
Heat Index: 68°   Visibility: 6mi
Dew Point: 54°   Wind: 13mph
Humidity: 60%   Direction: 160°SSE
Pressure: 29.88"   Gusts: NA
Location:  52.27°N, 2.15°W
Report Text: EGBB 311450Z 16011KT CAVOK 20/12 Q1012
Loading
Personal Weather Stations






























Interactive Weather Map New forecast layout! Learn more

10-Day Weather Forecast

Advertisements
Track Severe Weather on mobile